Amboy, Indiana
Current Conditions -  °F | °C
As of 8:15 PM on Saturday 25 Oct 2014 (Local Time) from KOKK Reporting Station
Clear Clear  
Wind Chill: 57°   Ceiling: Unl
Heat Index: 57°   Visibility: 10mi
Dew Point: 43°   Wind: 7mph
Humidity: 59%   Direction: 280°W
Pressure: 29.91"   Gusts: NA
Location:  40.6°N, 85.93°W
Report Text: KOKK 260015Z AUTO 28006KT 10SM CLR 14/06 A2991 RMK AO1
Loading
Personal Weather Stations






























Interactive Weather Map
Tropical Storm Tracking
New forecast layout! Learn more

10-Day Weather Forecast

Advertisements
Track Severe Weather on mobile